createdAt,value
2023-01-15T00:00:21.537Z,37.65
2023-01-15T00:02:48.157Z,37.42
2023-01-15T00:05:14.880Z,38.55
2023-01-15T00:07:41.692Z,37.60
2023-01-15T00:10:08.672Z,38.38
2023-01-15T00:12:35.204Z,37.60
2023-01-15T00:15:02.076Z,37.30
2023-01-15T00:17:28.629Z,36.30
2023-01-15T00:19:55.262Z,38.75
2023-01-15T00:22:22.006Z,34.83
2023-01-15T00:25:07.389Z,35.88
2023-01-15T00:27:40.313Z,35.67
2023-01-15T00:30:10.196Z,36.38
2023-01-15T00:32:38.439Z,35.65
2023-01-15T00:35:05.268Z,35.45
2023-01-15T00:37:31.844Z,34.53
2023-01-15T00:39:58.365Z,34.90
2023-01-15T00:42:25.026Z,33.25
2023-01-15T00:44:51.605Z,33.58
2023-01-15T00:47:18.201Z,34.05
2023-01-15T00:49:44.989Z,32.03
2023-01-15T00:52:12.139Z,30.95
2023-01-15T00:54:38.762Z,30.35
2023-01-15T00:57:05.429Z,31.13
2023-01-15T00:59:32.069Z,30.67
2023-01-15T01:01:58.901Z,29.80
2023-01-15T01:04:25.568Z,32.03
2023-01-15T01:06:52.749Z,32.20
2023-01-15T01:09:19.283Z,29.23
2023-01-15T01:11:45.884Z,31.50
2023-01-15T01:14:12.868Z,29.77
2023-01-15T01:16:42.044Z,30.85
2023-01-15T01:19:10.253Z,29.90
2023-01-15T01:21:37.668Z,28.60
2023-01-15T01:24:04.454Z,30.38
2023-01-15T01:26:31.083Z,28.98
2023-01-15T01:28:57.999Z,28.98
2023-01-15T01:31:24.853Z,27.88
2023-01-15T01:33:53.482Z,28.15
2023-01-15T01:36:20.632Z,31.13
2023-01-15T01:38:49.697Z,27.23
2023-01-15T01:41:17.430Z,26.85
2023-01-15T01:43:54.425Z,29.05
2023-01-15T01:46:21.210Z,25.80
2023-01-15T01:48:48.956Z,27.15
2023-01-15T01:51:15.679Z,26.85
2023-01-15T01:53:42.678Z,25.45
2023-01-15T01:56:11.527Z,25.35
2023-01-15T01:58:38.698Z,25.90
2023-01-15T02:01:05.934Z,25.23
2023-01-15T02:03:35.183Z,26.42
2023-01-15T02:06:04.801Z,24.83
2023-01-15T02:08:32.857Z,25.60
2023-01-15T02:10:59.482Z,24.55
2023-01-15T02:13:30.162Z,24.30
2023-01-15T02:16:02.845Z,22.98
2023-01-15T02:18:31.836Z,23.80
2023-01-15T02:20:59.602Z,24.63
2023-01-15T02:23:52.425Z,21.98
2023-01-15T02:26:19.524Z,21.75
2023-01-15T02:31:13.944Z,21.60
2023-01-15T02:33:44.717Z,21.63
2023-01-15T02:36:13.205Z,21.27
2023-01-15T02:38:42.382Z,21.20
2023-01-15T02:41:16.532Z,19.65
2023-01-15T02:43:46.225Z,19.98
2023-01-15T02:46:14.533Z,21.05
2023-01-15T02:48:42.166Z,20.63
2023-01-15T02:51:12.322Z,18.83
2023-01-15T02:53:40.262Z,21.00
2023-01-15T02:56:09.866Z,18.70
2023-01-15T02:58:45.193Z,20.33
2023-01-15T03:01:27.281Z,19.85
2023-01-15T03:03:53.952Z,17.80
2023-01-15T03:06:20.504Z,18.48
2023-01-15T03:08:47.804Z,18.25
2023-01-15T03:11:17.170Z,18.27
2023-01-15T03:13:46.848Z,17.10
2023-01-15T03:16:38.117Z,16.80
2023-01-15T03:19:12.969Z,17.73
2023-01-15T03:21:44.195Z,17.80
2023-01-15T03:24:11.938Z,17.98
2023-01-15T03:26:38.586Z,15.25
2023-01-15T03:29:07.490Z,16.88
2023-01-15T03:31:34.311Z,15.75
2023-01-15T03:34:01.352Z,15.43
2023-01-15T03:36:28.021Z,16.83
2023-01-15T03:39:00.433Z,16.48
2023-01-15T03:41:48.611Z,14.88
2023-01-15T03:44:15.530Z,16.55
2023-01-15T03:46:42.607Z,15.70
2023-01-15T03:49:14.875Z,15.73
2023-01-15T03:51:42.273Z,15.00
2023-01-15T03:54:13.265Z,14.27
2023-01-15T03:56:57.650Z,15.20
2023-01-15T03:59:32.489Z,14.73
2023-01-15T04:02:03.815Z,13.50
2023-01-15T04:04:31.109Z,14.88
2023-01-15T04:07:00.113Z,14.68
2023-01-15T04:09:27.452Z,14.98
2023-01-15T04:12:00.926Z,13.77
2023-01-15T04:14:31.318Z,13.73
2023-01-15T04:16:58.588Z,14.07
2023-01-15T04:19:25.608Z,13.13
2023-01-15T04:21:58.679Z,13.27
2023-01-15T04:24:25.404Z,12.55
2023-01-15T04:26:52.064Z,13.63
2023-01-15T04:29:18.699Z,12.30
2023-01-15T04:31:45.246Z,11.95
2023-01-15T04:34:11.917Z,13.27
2023-01-15T04:36:38.504Z,13.07
2023-01-15T04:39:05.405Z,12.25
2023-01-15T04:41:50.486Z,12.20
2023-01-15T04:44:17.173Z,12.05
2023-01-15T04:46:45.136Z,11.65
2023-01-15T04:49:13.082Z,12.57
2023-01-15T04:51:39.975Z,11.60
2023-01-15T04:54:10.094Z,12.35
2023-01-15T04:56:41.185Z,10.70
2023-01-15T04:59:07.960Z,10.85
2023-01-15T05:01:35.064Z,11.10
2023-01-15T05:04:02.355Z,10.98
2023-01-15T05:06:29.371Z,10.95
2023-01-15T05:08:55.944Z,10.77
2023-01-15T05:11:22.755Z,11.60
2023-01-15T05:13:49.311Z,11.20
2023-01-15T05:16:19.615Z,11.25
2023-01-15T05:18:47.100Z,11.13
2023-01-15T05:21:18.464Z,10.50
2023-01-15T05:23:45.151Z,11.88
2023-01-15T05:26:11.705Z,11.55
2023-01-15T05:28:38.333Z,10.55
2023-01-15T05:31:12.230Z,11.40
2023-01-15T05:33:39.214Z,11.10
2023-01-15T05:36:09.687Z,11.07
2023-01-15T05:38:36.626Z,10.98
2023-01-15T05:41:04.442Z,10.77
2023-01-15T05:43:31.590Z,11.40
2023-01-15T05:46:01.869Z,9.90
2023-01-15T05:48:29.121Z,10.82
2023-01-15T05:50:55.775Z,11.02
2023-01-15T05:53:22.764Z,10.50
2023-01-15T05:55:49.360Z,12.27
2023-01-15T05:58:15.901Z,10.93
2023-01-15T06:00:42.821Z,10.52
2023-01-15T06:03:09.441Z,10.43
2023-01-15T06:05:36.008Z,10.10
2023-01-15T06:08:05.598Z,10.45
2023-01-15T06:10:32.165Z,9.98
2023-01-15T06:12:58.707Z,9.85
2023-01-15T06:15:25.311Z,7.90
2023-01-15T06:17:52.007Z,9.05
2023-01-15T06:20:18.580Z,9.25
2023-01-15T06:22:45.171Z,7.80
2023-01-15T06:25:11.739Z,8.07
2023-01-15T06:27:38.271Z,8.35
2023-01-15T06:30:06.191Z,8.30
2023-01-15T06:32:32.784Z,8.10
2023-01-15T06:34:59.375Z,7.78
2023-01-15T06:37:25.939Z,7.05
2023-01-15T06:39:52.547Z,7.07
2023-01-15T06:42:37.895Z,7.25
2023-01-15T06:45:23.538Z,7.75
2023-01-15T06:47:50.041Z,7.70
2023-01-15T06:50:16.722Z,8.13
2023-01-15T06:52:43.332Z,7.82
2023-01-15T06:55:11.463Z,8.82
2023-01-15T06:57:38.976Z,7.55
2023-01-15T07:00:06.615Z,7.57
2023-01-15T07:02:33.274Z,7.00
2023-01-15T07:04:59.835Z,7.93
2023-01-15T07:07:27.745Z,6.88
2023-01-15T07:09:54.326Z,6.75
2023-01-15T07:12:21.326Z,7.60
2023-01-15T07:14:48.198Z,6.80
2023-01-15T07:17:15.111Z,7.13
2023-01-15T07:19:41.801Z,8.30
2023-01-15T07:22:09.869Z,7.22
2023-01-15T07:24:36.469Z,6.88
2023-01-15T07:27:03.276Z,7.38
2023-01-15T07:29:31.474Z,6.80
2023-01-15T07:31:58.234Z,7.40
2023-01-15T07:34:24.857Z,6.38
2023-01-15T07:36:51.509Z,7.97
2023-01-15T07:39:18.191Z,8.10
2023-01-15T07:42:03.619Z,7.28
2023-01-15T07:44:52.939Z,7.90
2023-01-15T07:47:39.381Z,8.05
2023-01-15T07:50:07.714Z,8.35
2023-01-15T07:52:34.204Z,7.53
2023-01-15T07:55:01.312Z,6.80
2023-01-15T07:57:28.117Z,8.35
2023-01-15T07:59:54.750Z,8.25
2023-01-15T08:02:21.398Z,6.43
2023-01-15T08:04:48.347Z,7.28
2023-01-15T08:07:15.736Z,7.47
2023-01-15T08:09:42.883Z,6.15
2023-01-15T08:12:29.033Z,7.15
2023-01-15T08:17:41.549Z,5.97
2023-01-15T08:20:11.559Z,6.47
2023-01-15T08:22:38.820Z,6.55
2023-01-15T08:25:05.704Z,6.70
2023-01-15T08:27:33.471Z,7.22
2023-01-15T08:32:26.550Z,6.03
2023-01-15T08:34:53.101Z,6.35
2023-01-15T08:37:19.875Z,6.43
2023-01-15T08:39:46.421Z,6.32
2023-01-15T08:42:13.072Z,6.05
2023-01-15T08:44:39.624Z,6.43
2023-01-15T08:47:06.202Z,5.45
2023-01-15T08:49:32.829Z,6.30
2023-01-15T08:52:01.064Z,6.47
2023-01-15T08:54:27.818Z,6.07
2023-01-15T08:56:54.423Z,6.28
2023-01-15T08:59:21.091Z,5.38
2023-01-15T09:01:47.951Z,5.57
2023-01-15T09:04:18.728Z,5.43
2023-01-15T09:06:45.931Z,5.50
2023-01-15T09:09:12.721Z,6.05
2023-01-15T09:11:41.689Z,5.68
2023-01-15T09:14:09.112Z,5.55
2023-01-15T09:16:56.049Z,5.82
2023-01-15T09:19:23.044Z,5.65
2023-01-15T09:21:49.601Z,5.18
2023-01-15T09:24:16.126Z,6.30
2023-01-15T09:26:42.904Z,5.25
2023-01-15T09:29:10.370Z,5.32
2023-01-15T09:31:36.967Z,5.55
2023-01-15T09:34:03.720Z,5.32
2023-01-15T09:36:31.855Z,5.22
2023-01-15T09:38:58.931Z,5.20
2023-01-15T09:41:45.485Z,5.18
2023-01-15T09:44:11.999Z,4.88
2023-01-15T09:46:41.467Z,5.85
2023-01-15T09:49:26.929Z,4.40
2023-01-15T09:52:12.879Z,5.10
2023-01-15T09:54:45.494Z,4.93
2023-01-15T09:57:13.613Z,5.28
2023-01-15T09:59:42.418Z,6.38
2023-01-15T10:02:35.302Z,5.35
2023-01-15T10:05:13.324Z,4.70
2023-01-15T10:07:51.518Z,6.60
2023-01-15T10:10:20.267Z,4.72
2023-01-15T10:12:48.346Z,4.82
2023-01-15T10:15:22.408Z,5.68
2023-01-15T10:17:50.546Z,4.72
2023-01-15T10:20:19.886Z,4.20
2023-01-15T10:22:52.326Z,4.78
2023-01-15T10:25:22.064Z,4.35
2023-01-15T10:27:50.974Z,4.38
2023-01-15T10:30:20.605Z,5.30
2023-01-15T10:33:03.158Z,4.40
2023-01-15T10:35:29.789Z,4.00
2023-01-15T10:38:02.567Z,4.57
2023-01-15T10:40:50.237Z,4.05
2023-01-15T10:43:16.806Z,3.80
2023-01-15T10:45:45.809Z,3.90
2023-01-15T10:48:17.100Z,4.35
2023-01-15T10:50:44.121Z,4.05
2023-01-15T10:53:18.699Z,4.22
2023-01-15T10:55:47.339Z,4.10
2023-01-15T10:58:17.048Z,4.55
2023-01-15T11:00:46.608Z,3.75
2023-01-15T11:03:18.252Z,3.92
2023-01-15T11:05:46.754Z,3.95
2023-01-15T11:11:17.197Z,3.97
2023-01-15T11:14:11.284Z,3.97
2023-01-15T11:16:58.675Z,3.30
2023-01-15T11:19:37.391Z,3.25
2023-01-15T11:22:09.599Z,4.00
2023-01-15T11:24:45.706Z,3.65
2023-01-15T11:27:15.463Z,4.03
2023-01-15T11:29:44.076Z,3.78
2023-01-15T11:32:19.631Z,3.45
2023-01-15T11:34:52.921Z,3.22
2023-01-15T11:37:19.501Z,3.22
2023-01-15T11:40:05.580Z,3.03
2023-01-15T11:45:37.533Z,2.97
2023-01-15T11:48:36.277Z,2.78
2023-01-15T11:51:02.857Z,3.45
2023-01-15T11:53:32.784Z,3.35
2023-01-15T11:56:01.055Z,3.83
2023-01-15T11:58:47.878Z,3.97
2023-01-15T12:01:21.226Z,2.40
2023-01-15T12:03:48.088Z,3.15
2023-01-15T12:06:14.956Z,3.08
2023-01-15T12:08:44.346Z,3.15
2023-01-15T12:11:26.398Z,2.50
2023-01-15T12:14:12.367Z,3.03
2023-01-15T12:17:14.316Z,3.25
2023-01-15T12:19:59.746Z,2.75
2023-01-15T12:22:39.625Z,2.40
2023-01-15T12:25:20.402Z,3.55
2023-01-15T12:27:49.894Z,3.13
2023-01-15T12:30:23.889Z,3.05
2023-01-15T12:35:28.580Z,3.03
2023-01-15T12:37:58.318Z,2.40
2023-01-15T12:40:30.529Z,2.60
2023-01-15T12:43:16.021Z,2.45
2023-01-15T12:45:49.867Z,2.30
2023-01-15T12:48:27.166Z,2.70
2023-01-15T12:50:55.115Z,2.92
2023-01-15T12:53:27.971Z,2.70
2023-01-15T12:55:58.306Z,2.53
2023-01-15T12:58:27.612Z,2.22
2023-01-15T13:01:02.972Z,2.78
2023-01-15T13:03:49.086Z,2.55
2023-01-15T13:06:17.056Z,2.53
2023-01-15T13:09:13.206Z,2.65
2023-01-15T13:11:39.794Z,2.55
2023-01-15T13:14:15.454Z,2.30
2023-01-15T13:16:58.871Z,2.72
2023-01-15T13:19:46.455Z,2.42
2023-01-15T13:22:18.305Z,2.22
2023-01-15T13:24:47.629Z,2.58
2023-01-15T13:27:20.257Z,2.58
2023-01-15T13:29:55.863Z,2.13
2023-01-15T13:32:22.591Z,2.50
2023-01-15T13:35:01.076Z,3.17
2023-01-15T13:37:29.783Z,2.53
2023-01-15T13:40:03.671Z,2.38
2023-01-15T13:45:18.755Z,3.13
2023-01-15T13:47:47.782Z,2.45
2023-01-15T13:50:19.384Z,3.15
2023-01-15T13:52:46.172Z,2.65
2023-01-15T13:55:15.789Z,2.78
2023-01-15T13:57:43.089Z,2.65
2023-01-15T14:00:28.202Z,2.70
2023-01-15T14:02:56.739Z,2.33
2023-01-15T14:05:23.566Z,2.05
2023-01-15T14:07:50.186Z,3.30
2023-01-15T14:10:20.446Z,2.17
2023-01-15T14:13:13.520Z,2.55
2023-01-15T14:16:03.811Z,2.35
2023-01-15T14:18:45.876Z,3.83
2023-01-15T14:21:15.333Z,2.28
2023-01-15T14:24:14.355Z,2.55
2023-01-15T14:27:16.301Z,2.47
2023-01-15T14:29:46.060Z,3.08
2023-01-15T14:32:20.815Z,2.13
2023-01-15T14:34:54.449Z,2.20
2023-01-15T14:37:30.247Z,2.92
2023-01-15T14:40:00.036Z,2.90
2023-01-15T14:42:45.106Z,3.13
2023-01-15T14:45:11.646Z,2.40
2023-01-15T14:47:48.705Z,2.65
2023-01-15T14:50:34.604Z,2.80
2023-01-15T14:53:06.734Z,1.92
2023-01-15T14:55:33.612Z,2.28
2023-01-15T14:58:14.491Z,2.65
2023-01-15T15:00:44.374Z,2.40
2023-01-15T15:03:19.160Z,2.00
2023-01-15T15:05:46.091Z,2.38
2023-01-15T15:08:16.548Z,2.35
2023-01-15T15:10:44.177Z,2.65
2023-01-15T15:13:28.745Z,1.90
2023-01-15T15:16:04.616Z,2.03
2023-01-15T15:18:49.675Z,2.20
2023-01-15T15:21:16.265Z,1.90
2023-01-15T15:23:59.975Z,3.00
2023-01-15T15:26:29.402Z,2.85
2023-01-15T15:28:57.301Z,2.40
2023-01-15T15:31:26.879Z,2.40
2023-01-15T15:33:56.658Z,2.58
2023-01-15T15:36:24.945Z,2.63
2023-01-15T15:39:04.906Z,2.20
2023-01-15T15:41:51.105Z,3.63
2023-01-15T15:44:39.173Z,2.67
2023-01-15T15:47:40.825Z,2.58
2023-01-15T15:50:07.610Z,2.70
2023-01-15T15:52:35.695Z,2.67
2023-01-15T15:55:06.449Z,2.42
2023-01-15T15:57:34.962Z,2.40
2023-01-15T16:00:01.567Z,2.40
2023-01-15T16:02:36.242Z,3.13
2023-01-15T16:05:04.110Z,2.22
2023-01-15T16:10:02.705Z,2.78
2023-01-15T16:12:30.731Z,3.05
2023-01-15T16:14:57.700Z,3.38
2023-01-15T16:17:26.998Z,3.63
2023-01-15T16:19:56.785Z,3.33
2023-01-15T16:22:23.765Z,4.22
2023-01-15T16:24:54.564Z,4.50
2023-01-15T16:27:22.297Z,5.13
2023-01-15T16:29:50.649Z,5.15
2023-01-15T16:32:22.330Z,5.93
2023-01-15T16:34:49.479Z,5.40
2023-01-15T16:37:25.018Z,7.28
2023-01-15T16:39:51.876Z,6.82
2023-01-15T16:42:33.219Z,7.40
2023-01-15T16:45:05.591Z,6.85
2023-01-15T16:47:33.171Z,7.22
2023-01-15T16:50:18.719Z,6.25
2023-01-15T16:52:49.344Z,6.90
2023-01-15T16:55:34.406Z,8.02
2023-01-15T16:58:13.086Z,8.68
2023-01-15T17:00:40.897Z,8.18
2023-01-15T17:05:36.939Z,8.57
2023-01-15T17:08:03.850Z,8.13
2023-01-15T17:10:31.519Z,8.50
2023-01-15T17:12:58.696Z,7.97
2023-01-15T17:15:25.578Z,9.95
2023-01-15T17:17:52.977Z,8.95
2023-01-15T17:20:20.410Z,9.25
2023-01-15T17:22:49.129Z,9.55
2023-01-15T17:25:26.620Z,9.85
2023-01-15T17:27:54.846Z,10.98
2023-01-15T17:30:22.718Z,10.60
2023-01-15T17:32:49.501Z,11.23
2023-01-15T17:35:18.875Z,10.40
2023-01-15T17:37:45.483Z,11.27
2023-01-15T17:40:12.620Z,10.63
2023-01-15T17:42:39.116Z,10.32
2023-01-15T17:45:05.909Z,10.80
2023-01-15T17:47:32.531Z,9.75
2023-01-15T17:49:59.185Z,10.63
2023-01-15T17:52:25.765Z,10.52
2023-01-15T17:55:11.099Z,11.05
2023-01-15T17:58:16.199Z,9.27
2023-01-15T18:01:01.726Z,9.65
2023-01-15T18:03:46.934Z,9.70
2023-01-15T18:06:14.115Z,25.30
2023-01-15T18:08:41.821Z,28.83
2023-01-15T18:11:08.381Z,37.03
2023-01-15T18:13:35.017Z,40.42
2023-01-15T18:16:01.839Z,54.58
2023-01-15T18:18:28.402Z,158.10
2023-01-15T18:20:54.948Z,121.72
2023-01-15T18:23:21.604Z,89.22
2023-01-15T18:25:48.296Z,86.63
2023-01-15T18:28:15.336Z,71.85
2023-01-15T18:30:41.949Z,69.65
2023-01-15T18:33:08.630Z,67.07
2023-01-15T18:35:35.224Z,65.20
2023-01-15T18:38:01.849Z,62.70
2023-01-15T18:40:31.508Z,58.38
2023-01-15T18:43:16.796Z,61.72
2023-01-15T18:46:05.623Z,59.92
2023-01-15T18:48:32.284Z,51.78
2023-01-15T18:51:00.257Z,54.70
2023-01-15T18:53:26.861Z,53.30
2023-01-15T18:55:53.478Z,53.40
2023-01-15T18:58:20.091Z,52.17
2023-01-15T19:00:46.789Z,52.67
2023-01-15T19:03:13.429Z,47.80
2023-01-15T19:05:39.994Z,45.55
2023-01-15T19:08:06.727Z,46.60
2023-01-15T19:10:33.312Z,44.17
2023-01-15T19:13:02.309Z,45.75
2023-01-15T19:15:47.732Z,42.63
2023-01-15T19:18:33.122Z,40.63
2023-01-15T19:20:59.707Z,37.22
2023-01-15T19:23:26.323Z,38.83
2023-01-15T19:25:52.869Z,39.90
2023-01-15T19:28:20.470Z,36.35
2023-01-15T19:31:11.290Z,36.95
2023-01-15T19:33:37.970Z,37.20
2023-01-15T19:36:04.976Z,34.60
2023-01-15T19:38:33.378Z,34.22
2023-01-15T19:41:19.904Z,33.80
2023-01-15T19:44:04.936Z,32.38
2023-01-15T19:46:50.300Z,32.58
2023-01-15T19:49:40.689Z,32.80
2023-01-15T19:52:25.850Z,30.08
2023-01-15T19:54:59.830Z,28.92
2023-01-15T19:57:27.176Z,28.80
2023-01-15T19:59:53.810Z,28.75
2023-01-15T20:02:20.619Z,29.05
2023-01-15T20:04:47.907Z,28.88
2023-01-15T20:07:14.779Z,28.55
2023-01-15T20:09:41.568Z,29.35
2023-01-15T20:12:28.237Z,27.90
2023-01-15T20:14:55.061Z,27.98
2023-01-15T20:17:22.165Z,27.13
2023-01-15T20:19:48.881Z,27.70
2023-01-15T20:22:15.622Z,28.08
2023-01-15T20:24:44.276Z,25.65
2023-01-15T20:27:11.764Z,28.25
2023-01-15T20:29:40.193Z,27.08
2023-01-15T20:32:06.816Z,25.13
2023-01-15T20:34:38.231Z,25.08
2023-01-15T20:37:05.664Z,26.77
2023-01-15T20:39:32.406Z,25.60
2023-01-15T20:42:17.693Z,26.73
2023-01-15T20:44:53.314Z,24.70
2023-01-15T20:47:39.390Z,28.08
2023-01-15T20:50:06.863Z,28.48
2023-01-15T20:52:33.438Z,27.23
2023-01-15T20:55:00.188Z,23.88
2023-01-15T20:57:26.832Z,24.00
2023-01-15T20:59:53.359Z,23.88
2023-01-15T21:02:19.939Z,23.70
2023-01-15T21:04:46.480Z,23.38
2023-01-15T21:07:13.005Z,23.42
2023-01-15T21:09:39.600Z,23.33
2023-01-15T21:12:06.358Z,21.60
2023-01-15T21:14:32.992Z,24.08
2023-01-15T21:16:59.677Z,21.15
2023-01-15T21:19:26.389Z,23.25
2023-01-15T21:21:52.912Z,22.80
2023-01-15T21:24:19.696Z,21.92
2023-01-15T21:26:48.648Z,21.70
2023-01-15T21:29:15.403Z,20.60
2023-01-15T21:31:45.086Z,22.38
2023-01-15T21:34:11.948Z,22.38
2023-01-15T21:36:38.540Z,21.98
2023-01-15T21:39:05.123Z,25.35
2023-01-15T21:41:50.501Z,26.50
2023-01-15T21:44:42.675Z,27.67
2023-01-15T21:49:35.883Z,28.42
2023-01-15T21:52:03.961Z,29.42
2023-01-15T21:54:31.395Z,30.08
2023-01-15T21:56:58.465Z,31.88
2023-01-15T21:59:25.078Z,33.28
2023-01-15T22:01:58.826Z,33.25
2023-01-15T22:04:29.952Z,36.33
2023-01-15T22:06:56.492Z,32.97
2023-01-15T22:09:23.522Z,37.20
2023-01-15T22:11:52.453Z,21.25
2023-01-15T22:14:22.168Z,22.25
2023-01-15T22:16:51.468Z,23.08
2023-01-15T22:19:21.295Z,20.50
2023-01-15T22:21:48.498Z,21.73
2023-01-15T22:24:15.423Z,22.23
2023-01-15T22:26:49.000Z,21.77
2023-01-15T22:29:15.781Z,20.45
2023-01-15T22:31:42.400Z,20.20
2023-01-15T22:34:08.930Z,20.02
2023-01-15T22:36:35.546Z,19.27
2023-01-15T22:39:02.280Z,18.63
2023-01-15T22:41:47.606Z,19.95
2023-01-15T22:44:14.180Z,18.55
2023-01-15T22:46:40.841Z,18.83
2023-01-15T22:49:07.380Z,19.27
2023-01-15T22:51:34.058Z,18.85
2023-01-15T22:54:00.778Z,17.98
2023-01-15T22:56:27.399Z,18.23
2023-01-15T22:58:54.533Z,16.75
2023-01-15T23:01:21.770Z,17.13
2023-01-15T23:03:48.445Z,17.60
2023-01-15T23:06:15.284Z,17.13
2023-01-15T23:08:41.935Z,16.13
2023-01-15T23:11:10.032Z,16.27
2023-01-15T23:13:37.017Z,16.60
2023-01-15T23:16:03.703Z,15.50
2023-01-15T23:18:30.839Z,15.55
2023-01-15T23:20:57.515Z,14.70
2023-01-15T23:23:24.078Z,15.65
2023-01-15T23:25:51.502Z,14.10
2023-01-15T23:28:18.089Z,14.80
2023-01-15T23:30:45.029Z,15.45
2023-01-15T23:33:12.196Z,14.55
2023-01-15T23:35:38.826Z,13.27
2023-01-15T23:38:05.457Z,13.55
2023-01-15T23:40:32.042Z,14.80
2023-01-15T23:43:17.357Z,12.75
2023-01-15T23:46:02.741Z,13.68
2023-01-15T23:48:29.882Z,13.40
2023-01-15T23:50:56.625Z,12.23
2023-01-15T23:53:23.201Z,12.80
2023-01-15T23:55:49.906Z,12.95
2023-01-15T23:58:16.574Z,11.75
